createdAt,value
2022-08-30T00:00:46.702Z,0.00
2022-08-30T00:01:46.716Z,0.00
2022-08-30T00:02:46.857Z,0.00
2022-08-30T00:03:46.824Z,0.00
2022-08-30T00:04:46.651Z,0.00
2022-08-30T00:05:46.642Z,0.00
2022-08-30T00:06:46.632Z,0.00
2022-08-30T00:07:46.619Z,0.00
2022-08-30T00:08:46.634Z,0.00
2022-08-30T00:09:46.622Z,0.00
2022-08-30T00:10:46.586Z,0.00
2022-08-30T00:11:46.571Z,0.00
2022-08-30T00:12:46.575Z,0.00
2022-08-30T00:13:46.579Z,0.00
2022-08-30T00:14:46.568Z,0.00
2022-08-30T00:15:46.601Z,0.00
2022-08-30T00:16:46.517Z,0.00
2022-08-30T00:17:46.506Z,0.00
2022-08-30T00:18:46.501Z,0.00
2022-08-30T00:19:46.489Z,0.00
2022-08-30T00:20:46.473Z,0.00
2022-08-30T00:21:46.474Z,0.00
2022-08-30T00:22:46.453Z,0.00
2022-08-30T00:23:46.441Z,0.00
2022-08-30T00:24:46.465Z,0.00
2022-08-30T00:25:46.416Z,0.00
2022-08-30T00:26:46.420Z,0.00
2022-08-30T00:27:46.395Z,0.00
2022-08-30T00:28:46.436Z,0.00
2022-08-30T00:29:46.396Z,0.00
2022-08-30T00:30:46.407Z,0.00
2022-08-30T00:31:46.350Z,0.00
2022-08-30T00:32:46.340Z,0.00
2022-08-30T00:33:46.328Z,0.00
2022-08-30T00:34:46.341Z,0.00
2022-08-30T00:35:46.304Z,0.00
2022-08-30T00:36:46.335Z,0.00
2022-08-30T00:37:46.299Z,0.00
2022-08-30T00:38:46.274Z,0.00
2022-08-30T00:39:46.263Z,0.00
2022-08-30T00:40:46.333Z,0.00
2022-08-30T00:41:46.239Z,0.00
2022-08-30T00:42:50.620Z,0.00
2022-08-30T00:43:46.231Z,0.00
2022-08-30T00:44:46.271Z,0.00
2022-08-30T00:45:46.193Z,0.00
2022-08-30T00:46:46.190Z,0.00
2022-08-30T00:47:46.170Z,0.00
2022-08-30T00:48:46.159Z,0.00
2022-08-30T00:49:46.146Z,0.00
2022-08-30T00:50:46.298Z,0.00
2022-08-30T00:51:46.123Z,0.00
2022-08-30T00:52:46.114Z,0.00
2022-08-30T00:53:46.100Z,0.00
2022-08-30T00:54:46.094Z,0.00
2022-08-30T00:55:46.082Z,0.00
2022-08-30T00:56:46.071Z,0.00
2022-08-30T00:57:46.059Z,0.00
2022-08-30T00:58:46.050Z,0.00
2022-08-30T00:59:46.035Z,0.00
2022-08-30T01:00:46.034Z,0.00
2022-08-30T01:01:46.078Z,0.00
2022-08-30T01:02:46.077Z,0.00
2022-08-30T01:03:45.992Z,0.00
2022-08-30T01:04:46.007Z,0.00
2022-08-30T01:05:45.966Z,0.00
2022-08-30T01:06:45.958Z,0.00
2022-08-30T01:07:45.943Z,0.00
2022-08-30T01:08:45.935Z,0.00
2022-08-30T01:09:45.962Z,0.00
2022-08-30T01:10:45.933Z,0.00
2022-08-30T01:11:45.899Z,0.00
2022-08-30T01:12:45.892Z,0.00
2022-08-30T01:13:45.876Z,0.00
2022-08-30T01:14:45.907Z,0.00
2022-08-30T01:15:45.957Z,0.00
2022-08-30T01:16:45.846Z,0.00
2022-08-30T01:17:45.841Z,0.00
2022-08-30T01:18:45.826Z,0.00
2022-08-30T01:19:45.846Z,0.00
2022-08-30T01:20:45.860Z,0.00
2022-08-30T01:21:45.789Z,0.00
2022-08-30T01:22:45.777Z,0.00
2022-08-30T01:23:45.768Z,0.00
2022-08-30T01:24:45.754Z,0.00
2022-08-30T01:25:45.740Z,0.00
2022-08-30T01:26:45.733Z,0.00
2022-08-30T01:27:45.747Z,0.00
2022-08-30T01:28:45.711Z,0.00
2022-08-30T01:29:45.695Z,0.00
2022-08-30T01:30:45.784Z,0.00
2022-08-30T01:31:45.674Z,0.00
2022-08-30T01:32:45.688Z,0.00
2022-08-30T01:33:45.650Z,0.00
2022-08-30T01:34:45.639Z,0.00
2022-08-30T01:35:45.624Z,0.00
2022-08-30T01:36:45.617Z,0.00
2022-08-30T01:37:45.639Z,0.00
2022-08-30T01:38:45.593Z,0.00
2022-08-30T01:39:45.581Z,0.00
2022-08-30T01:40:45.594Z,0.00
2022-08-30T01:41:45.560Z,0.00
2022-08-30T01:42:45.573Z,0.00
2022-08-30T01:43:45.537Z,0.00
2022-08-30T01:44:45.522Z,0.00
2022-08-30T01:45:45.563Z,0.00
2022-08-30T01:46:45.521Z,0.00
2022-08-30T01:47:45.514Z,0.00
2022-08-30T01:48:53.822Z,0.00
2022-08-30T01:49:45.462Z,0.00
2022-08-30T01:50:45.458Z,0.00
2022-08-30T01:51:45.444Z,0.00
2022-08-30T01:52:45.460Z,0.00
2022-08-30T01:53:45.424Z,0.00
2022-08-30T01:54:45.410Z,0.00
2022-08-30T01:55:45.400Z,0.00
2022-08-30T01:56:45.421Z,0.00
2022-08-30T01:57:45.381Z,0.00
2022-08-30T01:58:45.360Z,0.00
2022-08-30T01:59:45.353Z,0.00
2022-08-30T02:00:45.339Z,0.00
2022-08-30T02:01:45.511Z,0.00
2022-08-30T02:02:45.377Z,0.00
2022-08-30T02:03:45.353Z,0.00
2022-08-30T02:04:45.293Z,0.00
2022-08-30T02:05:45.280Z,0.00
2022-08-30T02:06:45.271Z,0.00
2022-08-30T02:07:45.254Z,0.00
2022-08-30T02:08:45.270Z,0.00
2022-08-30T02:09:46.332Z,0.00
2022-08-30T02:10:45.223Z,0.00
2022-08-30T02:11:45.213Z,0.00
2022-08-30T02:12:45.364Z,0.00
2022-08-30T02:13:45.195Z,0.00
2022-08-30T02:14:45.176Z,0.00
2022-08-30T02:15:45.164Z,0.00
2022-08-30T02:16:45.235Z,0.00
2022-08-30T02:17:45.141Z,0.00
2022-08-30T02:18:45.135Z,0.00
2022-08-30T02:19:45.117Z,0.00
2022-08-30T02:20:45.109Z,0.00
2022-08-30T02:21:45.111Z,0.00
2022-08-30T02:22:49.224Z,0.00
2022-08-30T02:23:45.070Z,0.00
2022-08-30T02:24:45.089Z,0.00
2022-08-30T02:25:45.046Z,0.00
2022-08-30T02:26:45.036Z,0.00
2022-08-30T02:27:45.024Z,0.00
2022-08-30T02:28:50.050Z,0.00
2022-08-30T02:29:45.027Z,0.00
2022-08-30T02:30:45.090Z,0.00
2022-08-30T02:31:44.975Z,0.00
2022-08-30T02:32:44.963Z,0.00
2022-08-30T02:33:44.959Z,0.00
2022-08-30T02:34:44.944Z,0.00
2022-08-30T02:35:44.944Z,0.00
2022-08-30T02:36:44.917Z,0.00
2022-08-30T02:37:44.911Z,0.00
2022-08-30T02:38:44.906Z,0.00
2022-08-30T02:39:44.883Z,0.00
2022-08-30T02:40:44.922Z,0.00
2022-08-30T02:41:44.870Z,0.00
2022-08-30T02:42:44.847Z,0.00
2022-08-30T02:43:44.836Z,0.00
2022-08-30T02:44:44.824Z,0.00
2022-08-30T02:45:44.852Z,0.00
2022-08-30T02:46:44.808Z,0.00
2022-08-30T02:47:46.945Z,0.00
2022-08-30T02:48:44.802Z,0.00
2022-08-30T02:49:44.768Z,0.00
2022-08-30T02:50:44.753Z,0.00
2022-08-30T02:51:44.740Z,0.00
2022-08-30T02:52:48.215Z,0.00
2022-08-30T02:53:44.753Z,0.00
2022-08-30T02:54:44.704Z,0.00
2022-08-30T02:55:44.702Z,0.00
2022-08-30T02:56:44.705Z,0.00
2022-08-30T02:57:44.715Z,0.00
2022-08-30T02:58:44.663Z,0.00
2022-08-30T02:59:44.661Z,0.00
2022-08-30T03:00:44.675Z,0.00
2022-08-30T03:01:44.705Z,0.00
2022-08-30T03:02:44.608Z,0.00
2022-08-30T03:03:44.669Z,0.00
2022-08-30T03:04:44.601Z,0.00
2022-08-30T03:05:44.576Z,0.00
2022-08-30T03:06:44.560Z,0.00
2022-08-30T03:07:44.550Z,0.00
2022-08-30T03:08:44.594Z,0.00
2022-08-30T03:09:44.536Z,0.00
2022-08-30T03:10:44.510Z,0.00
2022-08-30T03:11:44.508Z,0.00
2022-08-30T03:12:44.488Z,0.00
2022-08-30T03:13:44.552Z,0.00
2022-08-30T03:14:44.465Z,0.00
2022-08-30T03:15:44.467Z,0.00
2022-08-30T03:16:44.520Z,0.00
2022-08-30T03:17:44.437Z,0.00
2022-08-30T03:18:44.419Z,0.00
2022-08-30T03:19:44.434Z,0.00
2022-08-30T03:20:46.220Z,0.00
2022-08-30T03:21:44.383Z,0.00
2022-08-30T03:22:44.371Z,0.00
2022-08-30T03:23:44.462Z,0.00
2022-08-30T03:24:44.348Z,0.00
2022-08-30T03:25:44.379Z,0.00
2022-08-30T03:26:46.396Z,0.00
2022-08-30T03:27:44.313Z,0.00
2022-08-30T03:28:44.298Z,0.00
2022-08-30T03:29:44.320Z,0.00
2022-08-30T03:30:44.283Z,0.00
2022-08-30T03:31:53.092Z,0.00
2022-08-30T03:32:44.259Z,0.00
2022-08-30T03:33:44.241Z,0.00
2022-08-30T03:34:44.298Z,0.00
2022-08-30T03:35:44.224Z,0.00
2022-08-30T03:36:44.206Z,0.00
2022-08-30T03:37:44.233Z,0.00
2022-08-30T03:38:44.197Z,0.00
2022-08-30T03:39:44.172Z,0.00
2022-08-30T03:40:44.239Z,0.00
2022-08-30T03:41:44.176Z,0.00
2022-08-30T03:42:44.130Z,0.00
2022-08-30T03:43:44.134Z,0.00
2022-08-30T03:44:44.127Z,0.00
2022-08-30T03:45:44.142Z,0.00
2022-08-30T03:46:44.085Z,0.00
2022-08-30T03:47:44.091Z,0.00
2022-08-30T03:48:44.093Z,0.00
2022-08-30T03:49:44.079Z,0.00
2022-08-30T03:50:44.053Z,0.00
2022-08-30T03:51:44.025Z,0.00
2022-08-30T03:52:44.022Z,0.00
2022-08-30T03:53:44.124Z,0.00
2022-08-30T03:54:43.993Z,0.00
2022-08-30T03:55:43.983Z,0.00
2022-08-30T03:56:43.968Z,0.00
2022-08-30T03:57:44.050Z,0.00
2022-08-30T03:58:43.939Z,0.00
2022-08-30T03:59:43.933Z,0.00
2022-08-30T04:00:43.989Z,0.00
2022-08-30T04:01:43.999Z,0.00
2022-08-30T04:02:43.894Z,0.00
2022-08-30T04:03:43.883Z,0.00
2022-08-30T04:04:43.869Z,0.00
2022-08-30T04:05:43.858Z,0.00
2022-08-30T04:06:43.866Z,0.00
2022-08-30T04:07:44.066Z,0.00
2022-08-30T04:08:43.819Z,0.00
2022-08-30T04:09:43.816Z,0.00
2022-08-30T04:10:43.791Z,4.00
2022-08-30T04:11:43.783Z,0.00
2022-08-30T04:12:48.942Z,0.00
2022-08-30T04:13:43.797Z,0.00
2022-08-30T04:14:43.759Z,4.00
2022-08-30T04:15:43.789Z,0.00
2022-08-30T04:16:43.761Z,0.00
2022-08-30T04:17:43.710Z,4.00
2022-08-30T04:18:43.696Z,0.00
2022-08-30T04:19:43.683Z,4.00
2022-08-30T04:20:43.673Z,0.00
2022-08-30T04:21:43.665Z,4.00
2022-08-30T04:22:43.644Z,4.00
2022-08-30T04:23:43.639Z,4.00
2022-08-30T04:24:43.623Z,4.00
2022-08-30T04:25:43.651Z,8.00
2022-08-30T04:26:43.595Z,8.00
2022-08-30T04:27:43.588Z,8.00
2022-08-30T04:28:43.579Z,8.00
2022-08-30T04:29:43.562Z,8.00
2022-08-30T04:30:43.570Z,12.00
2022-08-30T04:31:43.614Z,12.00
2022-08-30T04:32:43.523Z,16.00
2022-08-30T04:33:43.523Z,12.00
2022-08-30T04:34:43.520Z,16.00
2022-08-30T04:35:43.491Z,16.00
2022-08-30T04:36:48.299Z,20.00
2022-08-30T04:37:43.466Z,20.00
2022-08-30T04:38:43.452Z,24.00
2022-08-30T04:39:43.443Z,28.00
2022-08-30T04:40:43.478Z,28.00
2022-08-30T04:41:43.417Z,32.00
2022-08-30T04:42:43.424Z,32.00
2022-08-30T04:43:43.412Z,36.00
2022-08-30T04:44:43.374Z,40.00
2022-08-30T04:45:43.415Z,40.00
2022-08-30T04:46:44.594Z,44.00
2022-08-30T04:47:43.338Z,44.00
2022-08-30T04:48:43.347Z,48.00
2022-08-30T04:49:43.346Z,52.00
2022-08-30T04:50:43.329Z,56.00
2022-08-30T04:51:43.289Z,60.00
2022-08-30T04:52:43.301Z,60.00
2022-08-30T04:53:43.263Z,64.00
2022-08-30T04:54:43.265Z,68.00
2022-08-30T04:55:43.245Z,68.00
2022-08-30T04:56:43.244Z,72.00
2022-08-30T04:57:43.238Z,76.00
2022-08-30T04:58:43.205Z,76.00
2022-08-30T04:59:43.190Z,80.00
2022-08-30T05:00:43.694Z,84.00
2022-08-30T05:01:45.267Z,84.00
2022-08-30T05:02:43.215Z,92.00
2022-08-30T05:03:43.146Z,92.00
2022-08-30T05:04:43.128Z,92.00
2022-08-30T05:05:43.138Z,96.00
2022-08-30T05:06:43.108Z,100.00
2022-08-30T05:07:43.091Z,104.00
2022-08-30T05:08:46.700Z,104.00
2022-08-30T05:09:43.067Z,108.00
2022-08-30T05:10:43.080Z,112.00
2022-08-30T05:11:43.041Z,112.00
2022-08-30T05:12:43.127Z,112.00
2022-08-30T05:13:43.131Z,116.00
2022-08-30T05:14:43.004Z,120.00
2022-08-30T05:15:43.054Z,120.00
2022-08-30T05:16:43.038Z,124.00
2022-08-30T05:17:42.965Z,124.00
2022-08-30T05:18:42.970Z,128.00
2022-08-30T05:19:42.939Z,132.00
2022-08-30T05:20:42.926Z,136.00
2022-08-30T05:21:43.145Z,136.00
2022-08-30T05:22:42.899Z,136.00
2022-08-30T05:23:42.894Z,140.00
2022-08-30T05:24:42.876Z,148.00
2022-08-30T05:25:42.871Z,148.00
2022-08-30T05:26:42.919Z,152.00
2022-08-30T05:27:42.843Z,160.00
2022-08-30T05:28:42.825Z,164.00
2022-08-30T05:29:42.819Z,164.00
2022-08-30T05:30:42.799Z,164.00
2022-08-30T05:31:42.847Z,172.00
2022-08-30T05:32:42.787Z,176.00
2022-08-30T05:33:42.777Z,180.00
2022-08-30T05:34:42.751Z,176.00
2022-08-30T05:35:42.747Z,180.00
2022-08-30T05:36:42.754Z,188.00
2022-08-30T05:37:42.720Z,192.00
2022-08-30T05:38:42.704Z,196.00
2022-08-30T05:39:50.941Z,192.00
2022-08-30T05:40:42.709Z,200.00
2022-08-30T05:41:42.676Z,208.00
2022-08-30T05:42:42.647Z,212.00
2022-08-30T05:43:42.648Z,220.00
2022-08-30T05:44:42.620Z,224.00
2022-08-30T05:45:42.613Z,220.00
2022-08-30T05:46:42.622Z,240.00
2022-08-30T05:47:42.595Z,248.00
2022-08-30T05:48:42.590Z,244.00
2022-08-30T05:49:42.560Z,232.00
2022-08-30T05:50:42.561Z,244.00
2022-08-30T05:51:43.548Z,248.00
2022-08-30T05:52:42.518Z,256.00
2022-08-30T05:53:42.545Z,264.00
2022-08-30T05:54:42.530Z,268.00
2022-08-30T05:55:42.486Z,272.00
2022-08-30T05:56:42.469Z,268.00
2022-08-30T05:57:42.468Z,280.00
2022-08-30T05:58:42.486Z,268.00
2022-08-30T05:59:42.461Z,244.00
2022-08-30T06:00:42.423Z,280.00
2022-08-30T06:01:42.640Z,280.00
2022-08-30T06:02:42.444Z,240.00
2022-08-30T06:03:42.385Z,276.00
2022-08-30T06:04:42.381Z,264.00
2022-08-30T06:05:42.382Z,288.00
2022-08-30T06:06:42.356Z,292.00
2022-08-30T06:07:42.350Z,296.00
2022-08-30T06:08:42.330Z,292.00
2022-08-30T06:09:42.360Z,284.00
2022-08-30T06:10:42.296Z,284.00
2022-08-30T06:11:42.288Z,336.00
2022-08-30T06:12:42.270Z,316.00
2022-08-30T06:13:42.261Z,340.00
2022-08-30T06:14:42.253Z,316.00
2022-08-30T06:15:42.449Z,328.00
2022-08-30T06:16:42.223Z,324.00
2022-08-30T06:17:42.211Z,296.00
2022-08-30T06:18:42.195Z,304.00
2022-08-30T06:19:42.190Z,324.00
2022-08-30T06:20:42.173Z,336.00
2022-08-30T06:21:42.163Z,340.00
2022-08-30T06:22:42.155Z,328.00
2022-08-30T06:23:42.138Z,400.00
2022-08-30T06:24:57.079Z,344.00
2022-08-30T06:25:42.328Z,400.00
2022-08-30T06:26:42.143Z,328.00
2022-08-30T06:27:42.088Z,348.00
2022-08-30T06:28:42.070Z,336.00
2022-08-30T06:29:42.063Z,372.00
2022-08-30T06:30:42.051Z,320.00
2022-08-30T06:31:42.060Z,420.00
2022-08-30T06:32:42.052Z,384.00
2022-08-30T06:33:42.016Z,340.00
2022-08-30T06:34:41.998Z,356.00
2022-08-30T06:35:56.633Z,336.00
2022-08-30T06:36:41.974Z,332.00
2022-08-30T06:37:41.996Z,372.00
2022-08-30T06:38:41.957Z,360.00
2022-08-30T06:39:41.949Z,380.00
2022-08-30T06:40:42.000Z,312.00
2022-08-30T06:41:41.918Z,388.00
2022-08-30T06:42:41.958Z,360.00
2022-08-30T06:43:44.457Z,324.00
2022-08-30T06:44:41.876Z,444.00
2022-08-30T06:45:41.867Z,372.00
2022-08-30T06:46:41.947Z,356.00
2022-08-30T06:47:41.844Z,364.00
2022-08-30T06:48:43.094Z,352.00
2022-08-30T06:49:41.818Z,388.00
2022-08-30T06:50:41.804Z,396.00
2022-08-30T06:51:42.068Z,388.00
2022-08-30T06:52:41.781Z,396.00
2022-08-30T06:53:41.843Z,508.00
2022-08-30T06:54:41.757Z,500.00
2022-08-30T06:55:41.753Z,548.00
2022-08-30T06:56:48.748Z,412.00
2022-08-30T06:57:41.722Z,516.00
2022-08-30T06:58:41.708Z,492.00
2022-08-30T06:59:41.730Z,444.00
2022-08-30T07:00:41.683Z,404.00
2022-08-30T07:01:41.740Z,380.00
2022-08-30T07:02:41.694Z,372.00
2022-08-30T07:03:41.662Z,380.00
2022-08-30T07:04:41.665Z,388.00
2022-08-30T07:05:41.625Z,408.00
2022-08-30T07:06:41.618Z,404.00
2022-08-30T07:07:41.601Z,384.00
2022-08-30T07:08:41.593Z,384.00
2022-08-30T07:09:41.583Z,380.00
2022-08-30T07:10:41.573Z,376.00
2022-08-30T07:11:41.554Z,376.00
2022-08-30T07:12:41.552Z,380.00
2022-08-30T07:13:41.530Z,364.00
2022-08-30T07:14:41.537Z,368.00
2022-08-30T07:15:41.604Z,368.00
2022-08-30T07:16:41.500Z,376.00
2022-08-30T07:17:41.482Z,364.00
2022-08-30T07:18:41.474Z,432.00
2022-08-30T07:19:41.467Z,416.00
2022-08-30T07:20:41.465Z,416.00
2022-08-30T07:21:41.459Z,396.00
2022-08-30T07:22:41.450Z,400.00
2022-08-30T07:23:41.416Z,408.00
2022-08-30T07:24:41.423Z,408.00
2022-08-30T07:25:41.398Z,412.00
2022-08-30T07:26:41.418Z,412.00
2022-08-30T07:27:41.365Z,404.00
2022-08-30T07:28:41.368Z,408.00
2022-08-30T07:29:41.342Z,420.00
2022-08-30T07:30:41.354Z,440.00
2022-08-30T07:31:41.498Z,460.00
2022-08-30T07:32:41.310Z,424.00
2022-08-30T07:33:41.295Z,464.00
2022-08-30T07:34:41.292Z,428.00
2022-08-30T07:35:41.282Z,460.00
2022-08-30T07:36:41.263Z,480.00
2022-08-30T07:37:41.303Z,424.00
2022-08-30T07:38:41.243Z,420.00
2022-08-30T07:39:45.837Z,424.00
2022-08-30T07:40:41.306Z,440.00
2022-08-30T07:41:41.204Z,532.00
2022-08-30T07:42:41.199Z,544.00
2022-08-30T07:43:41.218Z,696.00
2022-08-30T07:44:41.171Z,500.00
2022-08-30T07:45:41.158Z,464.00
2022-08-30T07:46:41.208Z,496.00
2022-08-30T07:47:41.143Z,556.00
2022-08-30T07:48:41.164Z,736.00
2022-08-30T07:49:41.145Z,864.00
2022-08-30T07:50:41.104Z,1060.00
2022-08-30T07:51:41.087Z,912.00
2022-08-30T07:52:41.263Z,816.00
2022-08-30T07:53:41.093Z,784.00
2022-08-30T07:54:41.116Z,588.00
2022-08-30T07:55:41.047Z,664.00
2022-08-30T07:56:41.035Z,860.00
2022-08-30T07:57:41.021Z,1432.00
2022-08-30T07:58:41.035Z,1104.00
2022-08-30T07:59:41.001Z,1908.00
2022-08-30T08:00:40.991Z,2592.00
2022-08-30T08:01:41.055Z,2684.00
2022-08-30T08:02:41.005Z,1316.00
2022-08-30T08:03:40.954Z,760.00
2022-08-30T08:04:40.975Z,1620.00
2022-08-30T08:05:40.937Z,3704.00
2022-08-30T08:06:40.923Z,4540.00
2022-08-30T08:07:40.911Z,2868.00
2022-08-30T08:08:40.903Z,1344.00
2022-08-30T08:09:40.905Z,1048.00
2022-08-30T08:10:40.911Z,1068.00
2022-08-30T08:11:40.877Z,1136.00
2022-08-30T08:12:40.859Z,944.00
2022-08-30T08:13:53.069Z,892.00
2022-08-30T08:14:40.841Z,1008.00
2022-08-30T08:15:40.904Z,1228.00
2022-08-30T08:16:40.819Z,1144.00
2022-08-30T08:17:40.806Z,1200.00
2022-08-30T08:18:40.800Z,1572.00
2022-08-30T08:19:40.787Z,748.00
2022-08-30T08:20:40.806Z,992.00
2022-08-30T08:21:40.765Z,740.00
2022-08-30T08:22:40.758Z,1384.00
2022-08-30T08:23:40.743Z,1052.00
2022-08-30T08:24:40.742Z,1448.00
2022-08-30T08:25:40.769Z,1472.00
2022-08-30T08:26:41.138Z,1156.00
2022-08-30T08:27:40.701Z,2112.00
2022-08-30T08:28:40.700Z,1460.00
2022-08-30T08:29:40.695Z,0.00
2022-08-30T08:30:42.287Z,1656.00
2022-08-30T08:31:40.694Z,1368.00
2022-08-30T08:32:40.658Z,1504.00
2022-08-30T08:33:40.666Z,1124.00
2022-08-30T08:34:40.628Z,1780.00
2022-08-30T08:35:40.618Z,1864.00
2022-08-30T08:36:40.746Z,2760.00
2022-08-30T08:37:40.629Z,4260.00
2022-08-30T08:38:40.588Z,1180.00
2022-08-30T08:39:40.585Z,1064.00
2022-08-30T08:40:40.587Z,9416.00
2022-08-30T08:41:40.577Z,16576.00
2022-08-30T08:42:40.547Z,32512.00
2022-08-30T08:43:40.532Z,16704.00
2022-08-30T08:44:40.596Z,5380.00
2022-08-30T08:45:40.512Z,2040.00
2022-08-30T08:46:40.745Z,4032.00
2022-08-30T08:47:40.525Z,10440.00
2022-08-30T08:48:58.538Z,11564.00
2022-08-30T08:49:40.470Z,3428.00
2022-08-30T08:50:40.467Z,41728.00
2022-08-30T08:51:40.479Z,42080.00
2022-08-30T08:52:40.468Z,7080.00
2022-08-30T08:53:47.627Z,2400.00
2022-08-30T08:54:40.538Z,11956.00
2022-08-30T08:55:40.450Z,4892.00
2022-08-30T08:56:40.409Z,1372.00
2022-08-30T08:57:40.483Z,2952.00
2022-08-30T08:58:40.391Z,2856.00
2022-08-30T08:59:40.378Z,2168.00
2022-08-30T09:00:40.366Z,3020.00
2022-08-30T09:01:40.404Z,2960.00
2022-08-30T09:02:40.349Z,4508.00
2022-08-30T09:03:40.337Z,2684.00
2022-08-30T09:04:40.373Z,1556.00
2022-08-30T09:05:40.329Z,3104.00
2022-08-30T09:06:45.074Z,2128.00
2022-08-30T09:07:40.318Z,1332.00
2022-08-30T09:08:40.319Z,1148.00
2022-08-30T09:09:40.305Z,812.00
2022-08-30T09:10:50.341Z,836.00
2022-08-30T09:11:40.259Z,696.00
2022-08-30T09:12:40.932Z,768.00
2022-08-30T09:13:40.239Z,696.00
2022-08-30T09:14:44.250Z,876.00
2022-08-30T09:15:40.265Z,2004.00
2022-08-30T09:16:40.211Z,1404.00
2022-08-30T09:17:40.199Z,3320.00
2022-08-30T09:18:40.199Z,1896.00
2022-08-30T09:19:40.217Z,3688.00
2022-08-30T09:20:40.191Z,2416.00
2022-08-30T09:21:40.162Z,1408.00
2022-08-30T09:22:40.161Z,860.00
2022-08-30T09:23:40.159Z,1388.00
2022-08-30T09:24:40.300Z,2264.00
2022-08-30T09:25:41.770Z,1904.00
2022-08-30T09:26:40.113Z,1052.00
2022-08-30T09:27:40.101Z,1204.00
2022-08-30T09:28:40.092Z,1800.00
2022-08-30T09:29:40.098Z,2316.00
2022-08-30T09:30:40.142Z,6204.00
2022-08-30T09:31:40.061Z,3056.00
2022-08-30T09:32:40.051Z,1092.00
2022-08-30T09:33:40.036Z,604.00
2022-08-30T09:34:40.034Z,1140.00
2022-08-30T09:35:40.044Z,1020.00
2022-08-30T09:36:40.007Z,872.00
2022-08-30T09:37:40.008Z,644.00
2022-08-30T09:38:39.993Z,628.00
2022-08-30T09:39:39.978Z,632.00
2022-08-30T09:40:40.101Z,596.00
2022-08-30T09:41:39.959Z,572.00
2022-08-30T09:42:39.952Z,640.00
2022-08-30T09:43:39.948Z,608.00
2022-08-30T09:44:39.944Z,652.00
2022-08-30T09:45:39.921Z,584.00
2022-08-30T09:46:39.994Z,600.00
2022-08-30T09:47:39.902Z,592.00
2022-08-30T09:48:39.895Z,608.00
2022-08-30T09:49:39.894Z,628.00
2022-08-30T09:50:39.932Z,660.00
2022-08-30T09:51:40.227Z,824.00
2022-08-30T09:52:39.852Z,716.00
2022-08-30T09:53:42.475Z,1576.00
2022-08-30T09:54:39.831Z,648.00
2022-08-30T09:55:39.821Z,748.00
2022-08-30T09:56:39.846Z,640.00
2022-08-30T09:57:39.817Z,664.00
2022-08-30T09:58:39.790Z,600.00
2022-08-30T09:59:39.780Z,608.00
2022-08-30T10:00:39.767Z,596.00
2022-08-30T10:01:39.856Z,600.00
2022-08-30T10:02:39.757Z,596.00
2022-08-30T10:03:40.811Z,604.00
2022-08-30T10:04:39.738Z,616.00
2022-08-30T10:05:39.723Z,604.00
2022-08-30T10:06:39.708Z,776.00
2022-08-30T10:07:39.761Z,1104.00
2022-08-30T10:08:39.693Z,1064.00
2022-08-30T10:09:39.677Z,860.00
2022-08-30T10:10:44.000Z,1100.00
2022-08-30T10:11:39.660Z,884.00
2022-08-30T10:12:39.684Z,1232.00
2022-08-30T10:13:39.636Z,1036.00
2022-08-30T10:14:39.630Z,1140.00
2022-08-30T10:15:39.624Z,760.00
2022-08-30T10:16:39.630Z,860.00
2022-08-30T10:17:39.623Z,1232.00
2022-08-30T10:18:39.597Z,1468.00
2022-08-30T10:19:39.581Z,1532.00
2022-08-30T10:20:39.761Z,1772.00
2022-08-30T10:21:39.558Z,1032.00
2022-08-30T10:22:39.597Z,1148.00
2022-08-30T10:23:39.538Z,1648.00
2022-08-30T10:24:39.530Z,1316.00
2022-08-30T10:25:39.537Z,1408.00
2022-08-30T10:26:39.519Z,1584.00
2022-08-30T10:27:39.504Z,1216.00
2022-08-30T10:28:39.519Z,1428.00
2022-08-30T10:29:42.285Z,1128.00
2022-08-30T10:30:39.473Z,920.00
2022-08-30T10:31:39.480Z,872.00
2022-08-30T10:32:39.456Z,884.00
2022-08-30T10:33:39.470Z,880.00
2022-08-30T10:34:39.464Z,892.00
2022-08-30T10:35:39.478Z,876.00
2022-08-30T10:36:39.446Z,872.00
2022-08-30T10:37:39.437Z,856.00
2022-08-30T10:38:39.399Z,888.00
2022-08-30T10:39:39.394Z,836.00
2022-08-30T10:40:39.477Z,828.00
2022-08-30T10:41:39.391Z,816.00
2022-08-30T10:42:40.211Z,804.00
2022-08-30T10:43:39.375Z,804.00
2022-08-30T10:44:39.364Z,860.00
2022-08-30T10:45:39.353Z,876.00
2022-08-30T10:46:39.325Z,884.00
2022-08-30T10:47:39.309Z,880.00
2022-08-30T10:48:39.308Z,876.00
2022-08-30T10:49:40.638Z,884.00
2022-08-30T10:50:41.418Z,876.00
2022-08-30T10:51:39.339Z,828.00
2022-08-30T10:52:39.266Z,812.00
2022-08-30T10:53:39.272Z,804.00
2022-08-30T10:54:39.271Z,884.00
2022-08-30T10:55:39.234Z,880.00
2022-08-30T10:56:39.229Z,848.00
2022-08-30T10:57:39.243Z,892.00
2022-08-30T10:58:39.204Z,888.00
2022-08-30T10:59:39.200Z,848.00
2022-08-30T11:00:39.185Z,892.00
2022-08-30T11:01:46.413Z,868.00
2022-08-30T11:02:39.200Z,888.00
2022-08-30T11:03:39.163Z,852.00
2022-08-30T11:04:39.155Z,844.00
2022-08-30T11:05:40.694Z,808.00
2022-08-30T11:06:39.128Z,912.00
2022-08-30T11:07:39.177Z,928.00
2022-08-30T11:08:39.142Z,1080.00
2022-08-30T11:09:39.127Z,808.00
2022-08-30T11:10:39.093Z,1520.00
2022-08-30T11:11:40.822Z,756.00
2022-08-30T11:12:39.082Z,800.00
2022-08-30T11:13:39.089Z,788.00
2022-08-30T11:14:39.053Z,764.00
2022-08-30T11:15:39.042Z,776.00
2022-08-30T11:16:39.046Z,836.00
2022-08-30T11:17:39.049Z,864.00
2022-08-30T11:18:39.181Z,980.00
2022-08-30T11:19:39.006Z,1024.00
2022-08-30T11:20:38.994Z,824.00
2022-08-30T11:21:39.006Z,804.00
2022-08-30T11:22:39.446Z,844.00
2022-08-30T11:23:38.968Z,860.00
2022-08-30T11:24:38.976Z,884.00
2022-08-30T11:25:38.954Z,944.00
2022-08-30T11:26:38.938Z,976.00
2022-08-30T11:27:38.939Z,1036.00
2022-08-30T11:28:38.931Z,1004.00
2022-08-30T11:29:38.921Z,992.00
2022-08-30T11:30:38.898Z,1032.00
2022-08-30T11:31:38.893Z,1116.00
2022-08-30T11:32:38.882Z,1116.00
2022-08-30T11:33:38.881Z,1040.00
2022-08-30T11:34:38.888Z,1000.00
2022-08-30T11:35:38.890Z,1084.00
2022-08-30T11:36:45.881Z,936.00
2022-08-30T11:37:38.840Z,904.00
2022-08-30T11:38:38.826Z,904.00
2022-08-30T11:39:38.821Z,872.00
2022-08-30T11:40:38.812Z,888.00
2022-08-30T11:41:42.463Z,848.00
2022-08-30T11:42:38.808Z,872.00
2022-08-30T11:43:38.784Z,912.00
2022-08-30T11:44:38.774Z,932.00
2022-08-30T11:45:38.849Z,904.00
2022-08-30T11:46:38.750Z,920.00
2022-08-30T11:47:38.743Z,860.00
2022-08-30T11:48:38.731Z,916.00
2022-08-30T11:49:38.729Z,924.00
2022-08-30T11:50:38.719Z,896.00
2022-08-30T11:51:38.734Z,1164.00
2022-08-30T11:52:38.712Z,936.00
2022-08-30T11:53:38.688Z,824.00
2022-08-30T11:54:38.677Z,816.00
2022-08-30T11:55:38.682Z,828.00
2022-08-30T11:56:38.660Z,840.00
2022-08-30T11:57:38.653Z,828.00
2022-08-30T11:58:38.639Z,856.00
2022-08-30T11:59:38.634Z,836.00
2022-08-30T12:00:38.621Z,832.00
2022-08-30T12:01:50.908Z,876.00
2022-08-30T12:02:38.737Z,884.00
2022-08-30T12:03:38.745Z,872.00
2022-08-30T12:04:38.583Z,864.00
2022-08-30T12:05:38.607Z,952.00
2022-08-30T12:06:38.643Z,908.00
2022-08-30T12:07:38.560Z,920.00
2022-08-30T12:08:38.547Z,904.00
2022-08-30T12:09:38.542Z,928.00
2022-08-30T12:10:38.529Z,916.00
2022-08-30T12:11:38.524Z,1088.00
2022-08-30T12:12:38.514Z,980.00
2022-08-30T12:13:38.505Z,996.00
2022-08-30T12:14:39.569Z,1032.00
2022-08-30T12:15:38.511Z,1052.00
2022-08-30T12:16:38.545Z,1064.00
2022-08-30T12:17:38.512Z,1028.00
2022-08-30T12:18:38.461Z,1100.00
2022-08-30T12:19:38.451Z,1500.00
2022-08-30T12:20:38.453Z,8756.00
2022-08-30T12:21:44.847Z,1288.00
2022-08-30T12:22:38.448Z,860.00
2022-08-30T12:23:44.388Z,5144.00
2022-08-30T12:24:38.407Z,1464.00
2022-08-30T12:25:38.410Z,1400.00
2022-08-30T12:26:38.391Z,1432.00
2022-08-30T12:27:38.436Z,1000.00
2022-08-30T12:28:38.369Z,1076.00
2022-08-30T12:29:38.365Z,1060.00
2022-08-30T12:30:38.359Z,1096.00
2022-08-30T12:31:38.372Z,2292.00
2022-08-30T12:32:38.337Z,1236.00
2022-08-30T12:33:40.208Z,12680.00
2022-08-30T12:34:38.352Z,8088.00
2022-08-30T12:35:38.317Z,23392.00
2022-08-30T12:36:38.303Z,5952.00
2022-08-30T12:37:38.292Z,1264.00
2022-08-30T12:38:38.302Z,1216.00
2022-08-30T12:39:38.329Z,3040.00
2022-08-30T12:40:38.346Z,956.00
2022-08-30T12:41:43.518Z,1140.00